sensor_id;sensor_type;location;lat;lon;timestamp;temperature;humidity
52189;DHT22;38162;45.926;13.608;2023-09-08T00:00:49;23.50;63.60
52189;DHT22;38162;45.926;13.608;2023-09-08T00:03:15;23.50;63.20
52189;DHT22;38162;45.926;13.608;2023-09-08T00:05:41;23.40;63.60
52189;DHT22;38162;45.926;13.608;2023-09-08T00:08:07;23.40;64.30
52189;DHT22;38162;45.926;13.608;2023-09-08T00:10:33;23.40;65.10
52189;DHT22;38162;45.926;13.608;2023-09-08T00:12:59;23.30;65.10
52189;DHT22;38162;45.926;13.608;2023-09-08T00:15:24;23.40;65.20
52189;DHT22;38162;45.926;13.608;2023-09-08T00:17:50;23.40;64.60
52189;DHT22;38162;45.926;13.608;2023-09-08T00:20:16;23.30;64.60
52189;DHT22;38162;45.926;13.608;2023-09-08T00:22:42;23.30;64.50
52189;DHT22;38162;45.926;13.608;2023-09-08T00:25:07;23.30;65.00
52189;DHT22;38162;45.926;13.608;2023-09-08T00:27:33;23.30;65.30
52189;DHT22;38162;45.926;13.608;2023-09-08T00:29:59;23.20;65.50
52189;DHT22;38162;45.926;13.608;2023-09-08T00:32:27;23.20;65.80
52189;DHT22;38162;45.926;13.608;2023-09-08T00:34:53;23.10;65.90
52189;DHT22;38162;45.926;13.608;2023-09-08T00:37:19;23.10;66.30
52189;DHT22;38162;45.926;13.608;2023-09-08T00:39:44;23.10;66.50
52189;DHT22;38162;45.926;13.608;2023-09-08T00:42:10;23.10;66.50
52189;DHT22;38162;45.926;13.608;2023-09-08T00:44:36;23.10;66.60
52189;DHT22;38162;45.926;13.608;2023-09-08T00:47:01;23.10;66.90
52189;DHT22;38162;45.926;13.608;2023-09-08T00:49:27;23.00;67.00
52189;DHT22;38162;45.926;13.608;2023-09-08T00:51:54;23.00;67.00
52189;DHT22;38162;45.926;13.608;2023-09-08T00:54:19;23.00;67.20
52189;DHT22;38162;45.926;13.608;2023-09-08T00:56:46;23.00;67.10
52189;DHT22;38162;45.926;13.608;2023-09-08T00:59:14;22.90;67.30
52189;DHT22;38162;45.926;13.608;2023-09-08T01:01:39;22.90;67.30
52189;DHT22;38162;45.926;13.608;2023-09-08T01:04:05;22.90;67.60
52189;DHT22;38162;45.926;13.608;2023-09-08T01:06:31;22.90;67.70
52189;DHT22;38162;45.926;13.608;2023-09-08T01:08:58;22.90;67.60
52189;DHT22;38162;45.926;13.608;2023-09-08T01:11:25;22.90;67.60
52189;DHT22;38162;45.926;13.608;2023-09-08T01:13:51;22.90;67.80
52189;DHT22;38162;45.926;13.608;2023-09-08T01:16:17;22.90;67.90
52189;DHT22;38162;45.926;13.608;2023-09-08T01:18:46;22.90;67.80
52189;DHT22;38162;45.926;13.608;2023-09-08T01:27:05;22.80;68.20
52189;DHT22;38162;45.926;13.608;2023-09-08T01:29:33;22.80;68.10
52189;DHT22;38162;45.926;13.608;2023-09-08T01:31:59;22.70;68.10
52189;DHT22;38162;45.926;13.608;2023-09-08T01:34:26;22.70;68.10
52189;DHT22;38162;45.926;13.608;2023-09-08T01:36:52;22.70;67.90
52189;DHT22;38162;45.926;13.608;2023-09-08T01:39:17;22.70;67.80
52189;DHT22;38162;45.926;13.608;2023-09-08T01:41:43;22.70;67.80
52189;DHT22;38162;45.926;13.608;2023-09-08T01:44:09;22.70;67.60
52189;DHT22;38162;45.926;13.608;2023-09-08T01:46:37;22.70;67.40
52189;DHT22;38162;45.926;13.608;2023-09-08T01:49:04;22.70;67.10
52189;DHT22;38162;45.926;13.608;2023-09-08T01:51:29;22.70;66.90
52189;DHT22;38162;45.926;13.608;2023-09-08T01:53:55;22.70;66.90
52189;DHT22;38162;45.926;13.608;2023-09-08T01:56:21;22.70;66.90
52189;DHT22;38162;45.926;13.608;2023-09-08T01:58:48;22.70;66.90
52189;DHT22;38162;45.926;13.608;2023-09-08T02:01:14;22.70;67.00
52189;DHT22;38162;45.926;13.608;2023-09-08T02:03:39;22.70;67.00
52189;DHT22;38162;45.926;13.608;2023-09-08T02:06:05;22.70;67.10
52189;DHT22;38162;45.926;13.608;2023-09-08T02:08:31;22.60;66.90
52189;DHT22;38162;45.926;13.608;2023-09-08T02:10:56;22.60;67.00
52189;DHT22;38162;45.926;13.608;2023-09-08T02:13:22;22.60;66.90
52189;DHT22;38162;45.926;13.608;2023-09-08T02:15:48;22.60;67.00
52189;DHT22;38162;45.926;13.608;2023-09-08T02:18:14;22.60;67.00
52189;DHT22;38162;45.926;13.608;2023-09-08T02:20:39;22.60;67.10
52189;DHT22;38162;45.926;13.608;2023-09-08T02:23:06;22.60;67.00
52189;DHT22;38162;45.926;13.608;2023-09-08T02:25:32;22.60;66.80
52189;DHT22;38162;45.926;13.608;2023-09-08T02:27:58;22.60;66.70
52189;DHT22;38162;45.926;13.608;2023-09-08T02:30:24;22.60;66.70
52189;DHT22;38162;45.926;13.608;2023-09-08T02:32:49;22.60;66.70
52189;DHT22;38162;45.926;13.608;2023-09-08T02:35:15;22.50;66.90
52189;DHT22;38162;45.926;13.608;2023-09-08T02:37:41;22.50;66.80
52189;DHT22;38162;45.926;13.608;2023-09-08T02:40:07;22.60;66.90
52189;DHT22;38162;45.926;13.608;2023-09-08T02:42:33;22.50;67.00
52189;DHT22;38162;45.926;13.608;2023-09-08T02:44:59;22.60;67.40
52189;DHT22;38162;45.926;13.608;2023-09-08T02:47:25;22.50;67.40
52189;DHT22;38162;45.926;13.608;2023-09-08T02:49:51;22.60;67.40
52189;DHT22;38162;45.926;13.608;2023-09-08T02:52:17;22.50;67.30
52189;DHT22;38162;45.926;13.608;2023-09-08T02:54:45;22.50;67.40
52189;DHT22;38162;45.926;13.608;2023-09-08T02:57:11;22.50;67.40
52189;DHT22;38162;45.926;13.608;2023-09-08T02:59:36;22.50;67.10
52189;DHT22;38162;45.926;13.608;2023-09-08T03:02:03;22.50;66.90
52189;DHT22;38162;45.926;13.608;2023-09-08T03:04:28;22.50;66.50
52189;DHT22;38162;45.926;13.608;2023-09-08T03:06:54;22.50;66.20
52189;DHT22;38162;45.926;13.608;2023-09-08T03:09:20;22.50;66.00
52189;DHT22;38162;45.926;13.608;2023-09-08T03:11:46;22.50;65.80
52189;DHT22;38162;45.926;13.608;2023-09-08T03:14:11;22.60;65.60
52189;DHT22;38162;45.926;13.608;2023-09-08T03:16:37;22.50;65.50
52189;DHT22;38162;45.926;13.608;2023-09-08T03:19:03;22.60;65.60
52189;DHT22;38162;45.926;13.608;2023-09-08T03:21:29;22.60;65.60
52189;DHT22;38162;45.926;13.608;2023-09-08T03:23:54;22.60;65.50
52189;DHT22;38162;45.926;13.608;2023-09-08T03:26:20;22.50;65.30
52189;DHT22;38162;45.926;13.608;2023-09-08T03:28:46;22.60;65.40
52189;DHT22;38162;45.926;13.608;2023-09-08T03:31:12;22.60;65.40
52189;DHT22;38162;45.926;13.608;2023-09-08T03:33:37;22.60;65.40
52189;DHT22;38162;45.926;13.608;2023-09-08T03:36:04;22.60;65.40
52189;DHT22;38162;45.926;13.608;2023-09-08T03:38:30;22.50;65.50
52189;DHT22;38162;45.926;13.608;2023-09-08T03:40:55;22.40;65.90
52189;DHT22;38162;45.926;13.608;2023-09-08T03:43:21;22.50;66.60
52189;DHT22;38162;45.926;13.608;2023-09-08T03:45:47;22.40;66.50
52189;DHT22;38162;45.926;13.608;2023-09-08T03:48:13;22.40;66.70
52189;DHT22;38162;45.926;13.608;2023-09-08T03:50:38;22.30;66.80
52189;DHT22;38162;45.926;13.608;2023-09-08T03:53:04;22.30;67.50
52189;DHT22;38162;45.926;13.608;2023-09-08T03:55:30;22.30;68.40
52189;DHT22;38162;45.926;13.608;2023-09-08T03:57:56;22.30;68.50
52189;DHT22;38162;45.926;13.608;2023-09-08T04:00:22;22.30;68.40
52189;DHT22;38162;45.926;13.608;2023-09-08T04:02:49;22.30;68.20
52189;DHT22;38162;45.926;13.608;2023-09-08T04:05:18;22.20;68.00
52189;DHT22;38162;45.926;13.608;2023-09-08T04:07:47;22.20;68.20
52189;DHT22;38162;45.926;13.608;2023-09-08T04:10:13;22.20;68.50
52189;DHT22;38162;45.926;13.608;2023-09-08T04:12:39;22.20;68.80
52189;DHT22;38162;45.926;13.608;2023-09-08T04:15:06;22.20;68.50
52189;DHT22;38162;45.926;13.608;2023-09-08T04:17:31;22.20;68.50
52189;DHT22;38162;45.926;13.608;2023-09-08T04:19:57;22.10;68.40
52189;DHT22;38162;45.926;13.608;2023-09-08T04:22:23;22.10;68.30
52189;DHT22;38162;45.926;13.608;2023-09-08T04:24:49;22.10;68.50
52189;DHT22;38162;45.926;13.608;2023-09-08T04:27:15;22.10;68.80
52189;DHT22;38162;45.926;13.608;2023-09-08T04:29:41;22.00;68.90
52189;DHT22;38162;45.926;13.608;2023-09-08T04:32:06;22.00;68.80
52189;DHT22;38162;45.926;13.608;2023-09-08T04:34:41;22.00;68.60
52189;DHT22;38162;45.926;13.608;2023-09-08T04:37:08;22.00;68.60
52189;DHT22;38162;45.926;13.608;2023-09-08T04:39:34;22.00;68.80
52189;DHT22;38162;45.926;13.608;2023-09-08T04:42:01;21.90;68.90
52189;DHT22;38162;45.926;13.608;2023-09-08T04:44:26;22.00;68.90
52189;DHT22;38162;45.926;13.608;2023-09-08T04:46:53;22.00;68.60
52189;DHT22;38162;45.926;13.608;2023-09-08T04:49:18;21.90;68.20
52189;DHT22;38162;45.926;13.608;2023-09-08T04:51:44;22.00;68.20
52189;DHT22;38162;45.926;13.608;2023-09-08T04:54:10;22.00;68.00
52189;DHT22;38162;45.926;13.608;2023-09-08T04:56:37;22.00;68.00
52189;DHT22;38162;45.926;13.608;2023-09-08T04:59:03;22.00;67.40
52189;DHT22;38162;45.926;13.608;2023-09-08T05:01:29;22.00;67.20
52189;DHT22;38162;45.926;13.608;2023-09-08T05:03:59;22.10;67.40
52189;DHT22;38162;45.926;13.608;2023-09-08T05:06:25;22.10;67.20
52189;DHT22;38162;45.926;13.608;2023-09-08T05:08:51;22.20;67.00
52189;DHT22;38162;45.926;13.608;2023-09-08T05:11:17;22.20;66.90
52189;DHT22;38162;45.926;13.608;2023-09-08T05:13:45;22.20;67.10
52189;DHT22;38162;45.926;13.608;2023-09-08T05:16:11;22.20;67.20
52189;DHT22;38162;45.926;13.608;2023-09-08T05:18:40;22.20;67.30
52189;DHT22;38162;45.926;13.608;2023-09-08T05:21:07;22.20;67.60
52189;DHT22;38162;45.926;13.608;2023-09-08T05:23:33;22.30;68.00
52189;DHT22;38162;45.926;13.608;2023-09-08T05:25:59;22.30;68.50
52189;DHT22;38162;45.926;13.608;2023-09-08T05:28:25;22.20;68.80
52189;DHT22;38162;45.926;13.608;2023-09-08T05:30:52;22.30;69.00
52189;DHT22;38162;45.926;13.608;2023-09-08T05:33:17;22.30;69.40
52189;DHT22;38162;45.926;13.608;2023-09-08T05:35:45;22.30;69.60
52189;DHT22;38162;45.926;13.608;2023-09-08T05:38:11;22.30;69.50
52189;DHT22;38162;45.926;13.608;2023-09-08T05:40:37;22.30;69.30
52189;DHT22;38162;45.926;13.608;2023-09-08T05:43:03;22.30;69.60
52189;DHT22;38162;45.926;13.608;2023-09-08T05:45:31;22.30;69.90
52189;DHT22;38162;45.926;13.608;2023-09-08T05:47:57;22.30;70.10
52189;DHT22;38162;45.926;13.608;2023-09-08T05:50:23;22.30;69.80
52189;DHT22;38162;45.926;13.608;2023-09-08T05:52:51;22.30;69.40
52189;DHT22;38162;45.926;13.608;2023-09-08T05:55:17;22.40;69.60
52189;DHT22;38162;45.926;13.608;2023-09-08T05:57:43;22.40;69.00
52189;DHT22;38162;45.926;13.608;2023-09-08T06:00:09;22.50;68.60
52189;DHT22;38162;45.926;13.608;2023-09-08T06:02:35;22.50;68.20
52189;DHT22;38162;45.926;13.608;2023-09-08T06:05:00;22.60;68.00
52189;DHT22;38162;45.926;13.608;2023-09-08T06:07:26;22.60;67.60
52189;DHT22;38162;45.926;13.608;2023-09-08T06:09:52;22.60;67.40
52189;DHT22;38162;45.926;13.608;2023-09-08T06:12:18;22.70;67.50
52189;DHT22;38162;45.926;13.608;2023-09-08T06:14:43;22.70;67.40
52189;DHT22;38162;45.926;13.608;2023-09-08T06:17:10;22.70;67.50
52189;DHT22;38162;45.926;13.608;2023-09-08T06:19:36;22.80;67.50
52189;DHT22;38162;45.926;13.608;2023-09-08T06:22:02;22.90;67.60
52189;DHT22;38162;45.926;13.608;2023-09-08T06:24:27;22.90;68.10
52189;DHT22;38162;45.926;13.608;2023-09-08T06:26:53;22.90;68.10
52189;DHT22;38162;45.926;13.608;2023-09-08T06:29:19;22.90;67.80
52189;DHT22;38162;45.926;13.608;2023-09-08T06:31:44;23.00;67.50
52189;DHT22;38162;45.926;13.608;2023-09-08T06:34:10;23.00;67.20
52189;DHT22;38162;45.926;13.608;2023-09-08T06:36:36;23.00;67.00
52189;DHT22;38162;45.926;13.608;2023-09-08T06:39:02;23.10;66.80
52189;DHT22;38162;45.926;13.608;2023-09-08T06:41:28;23.10;66.60
52189;DHT22;38162;45.926;13.608;2023-09-08T06:43:54;23.10;66.60
52189;DHT22;38162;45.926;13.608;2023-09-08T06:46:19;23.10;66.70
52189;DHT22;38162;45.926;13.608;2023-09-08T06:48:45;23.20;67.90
52189;DHT22;38162;45.926;13.608;2023-09-08T06:51:11;23.20;67.60
52189;DHT22;38162;45.926;13.608;2023-09-08T06:53:37;23.30;67.70
52189;DHT22;38162;45.926;13.608;2023-09-08T06:56:03;23.30;68.70
52189;DHT22;38162;45.926;13.608;2023-09-08T06:58:28;23.30;68.90
52189;DHT22;38162;45.926;13.608;2023-09-08T07:00:54;23.40;68.60
52189;DHT22;38162;45.926;13.608;2023-09-08T07:03:22;23.40;68.50
52189;DHT22;38162;45.926;13.608;2023-09-08T07:05:49;23.40;68.50
52189;DHT22;38162;45.926;13.608;2023-09-08T07:08:16;23.50;68.40
52189;DHT22;38162;45.926;13.608;2023-09-08T07:10:43;23.50;68.50
52189;DHT22;38162;45.926;13.608;2023-09-08T07:13:09;23.50;68.40
52189;DHT22;38162;45.926;13.608;2023-09-08T07:15:36;23.60;68.00
52189;DHT22;38162;45.926;13.608;2023-09-08T07:18:02;23.70;65.90
52189;DHT22;38162;45.926;13.608;2023-09-08T07:20:27;23.70;64.70
52189;DHT22;38162;45.926;13.608;2023-09-08T07:22:53;23.80;64.60
52189;DHT22;38162;45.926;13.608;2023-09-08T07:25:19;23.80;64.70
52189;DHT22;38162;45.926;13.608;2023-09-08T07:27:45;23.90;64.60
52189;DHT22;38162;45.926;13.608;2023-09-08T07:30:11;23.90;64.40
52189;DHT22;38162;45.926;13.608;2023-09-08T07:32:37;24.00;64.40
52189;DHT22;38162;45.926;13.608;2023-09-08T07:35:03;24.00;64.80
52189;DHT22;38162;45.926;13.608;2023-09-08T07:37:29;24.00;64.90
52189;DHT22;38162;45.926;13.608;2023-09-08T07:39:55;24.10;65.20
52189;DHT22;38162;45.926;13.608;2023-09-08T07:42:21;24.10;65.30
52189;DHT22;38162;45.926;13.608;2023-09-08T07:44:47;24.20;64.30
52189;DHT22;38162;45.926;13.608;2023-09-08T07:47:13;24.20;63.70
52189;DHT22;38162;45.926;13.608;2023-09-08T07:49:39;24.30;62.70
52189;DHT22;38162;45.926;13.608;2023-09-08T07:52:04;24.30;62.50
52189;DHT22;38162;45.926;13.608;2023-09-08T07:54:32;24.30;62.60
52189;DHT22;38162;45.926;13.608;2023-09-08T07:56:58;24.30;62.40
52189;DHT22;38162;45.926;13.608;2023-09-08T07:59:24;24.40;62.40
52189;DHT22;38162;45.926;13.608;2023-09-08T08:01:50;24.50;63.20
52189;DHT22;38162;45.926;13.608;2023-09-08T08:04:16;24.50;63.10
52189;DHT22;38162;45.926;13.608;2023-09-08T08:06:41;24.50;63.20
52189;DHT22;38162;45.926;13.608;2023-09-08T08:09:07;24.60;63.60
52189;DHT22;38162;45.926;13.608;2023-09-08T08:11:33;24.60;63.70
52189;DHT22;38162;45.926;13.608;2023-09-08T08:13:59;24.70;62.60
52189;DHT22;38162;45.926;13.608;2023-09-08T08:16:24;24.70;62.20
52189;DHT22;38162;45.926;13.608;2023-09-08T08:18:50;24.80;62.80
52189;DHT22;38162;45.926;13.608;2023-09-08T08:21:16;24.80;61.20
52189;DHT22;38162;45.926;13.608;2023-09-08T08:23:42;24.90;62.00
52189;DHT22;38162;45.926;13.608;2023-09-08T08:26:07;24.90;61.00
52189;DHT22;38162;45.926;13.608;2023-09-08T08:28:33;25.00;61.00
52189;DHT22;38162;45.926;13.608;2023-09-08T08:30:59;25.00;62.30
52189;DHT22;38162;45.926;13.608;2023-09-08T08:33:25;25.00;62.60
52189;DHT22;38162;45.926;13.608;2023-09-08T08:35:52;25.10;62.80
52189;DHT22;38162;45.926;13.608;2023-09-08T08:38:18;25.20;62.90
52189;DHT22;38162;45.926;13.608;2023-09-08T08:40:44;25.20;63.40
52189;DHT22;38162;45.926;13.608;2023-09-08T08:43:10;25.30;62.80
52189;DHT22;38162;45.926;13.608;2023-09-08T08:45:37;25.30;62.20
52189;DHT22;38162;45.926;13.608;2023-09-08T08:48:05;25.40;61.90
52189;DHT22;38162;45.926;13.608;2023-09-08T08:50:35;25.40;61.50
52189;DHT22;38162;45.926;13.608;2023-09-08T08:53:01;25.50;61.90
52189;DHT22;38162;45.926;13.608;2023-09-08T08:55:29;25.60;62.10
52189;DHT22;38162;45.926;13.608;2023-09-08T08:58:03;25.60;61.40
52189;DHT22;38162;45.926;13.608;2023-09-08T09:00:29;25.70;61.90
52189;DHT22;38162;45.926;13.608;2023-09-08T09:02:55;25.70;61.50
52189;DHT22;38162;45.926;13.608;2023-09-08T09:05:23;25.80;60.70
52189;DHT22;38162;45.926;13.608;2023-09-08T09:07:50;25.90;60.30
52189;DHT22;38162;45.926;13.608;2023-09-08T09:10:17;25.90;60.60
52189;DHT22;38162;45.926;13.608;2023-09-08T09:12:43;26.00;61.00
52189;DHT22;38162;45.926;13.608;2023-09-08T09:15:09;26.00;61.60
52189;DHT22;38162;45.926;13.608;2023-09-08T09:17:35;26.10;59.80
52189;DHT22;38162;45.926;13.608;2023-09-08T09:20:18;26.10;59.40
52189;DHT22;38162;45.926;13.608;2023-09-08T09:22:46;26.20;59.40
52189;DHT22;38162;45.926;13.608;2023-09-08T09:25:29;26.20;58.80
52189;DHT22;38162;45.926;13.608;2023-09-08T09:27:58;26.30;58.40
52189;DHT22;38162;45.926;13.608;2023-09-08T09:30:24;26.40;58.40
52189;DHT22;38162;45.926;13.608;2023-09-08T09:33:00;26.50;57.40
52189;DHT22;38162;45.926;13.608;2023-09-08T09:35:44;26.50;57.50
52189;DHT22;38162;45.926;13.608;2023-09-08T09:38:10;26.60;56.50
52189;DHT22;38162;45.926;13.608;2023-09-08T09:40:37;26.60;57.30
52189;DHT22;38162;45.926;13.608;2023-09-08T09:43:04;26.70;57.80
52189;DHT22;38162;45.926;13.608;2023-09-08T09:45:31;26.70;57.10
52189;DHT22;38162;45.926;13.608;2023-09-08T09:47:57;26.80;56.20
52189;DHT22;38162;45.926;13.608;2023-09-08T09:50:34;26.80;56.00
52189;DHT22;38162;45.926;13.608;2023-09-08T09:53:07;26.90;57.10
52189;DHT22;38162;45.926;13.608;2023-09-08T09:55:34;27.00;55.80
52189;DHT22;38162;45.926;13.608;2023-09-08T09:58:03;27.00;55.10
52189;DHT22;38162;45.926;13.608;2023-09-08T10:00:32;27.00;55.30
52189;DHT22;38162;45.926;13.608;2023-09-08T10:02:59;27.10;54.40
52189;DHT22;38162;45.926;13.608;2023-09-08T10:05:25;27.20;54.90
52189;DHT22;38162;45.926;13.608;2023-09-08T10:07:51;27.20;55.10
52189;DHT22;38162;45.926;13.608;2023-09-08T10:10:18;27.20;54.90
52189;DHT22;38162;45.926;13.608;2023-09-08T10:12:45;27.30;55.50
52189;DHT22;38162;45.926;13.608;2023-09-08T10:15:12;27.30;53.80
52189;DHT22;38162;45.926;13.608;2023-09-08T10:17:41;27.40;54.70
52189;DHT22;38162;45.926;13.608;2023-09-08T10:20:09;27.40;54.20
52189;DHT22;38162;45.926;13.608;2023-09-08T10:22:42;27.50;54.30
52189;DHT22;38162;45.926;13.608;2023-09-08T10:25:09;27.50;54.10
52189;DHT22;38162;45.926;13.608;2023-09-08T10:27:38;27.60;53.80
52189;DHT22;38162;45.926;13.608;2023-09-08T10:30:07;27.60;53.80
52189;DHT22;38162;45.926;13.608;2023-09-08T10:32:33;27.70;53.80
52189;DHT22;38162;45.926;13.608;2023-09-08T10:35:02;27.70;52.50
52189;DHT22;38162;45.926;13.608;2023-09-08T10:37:28;27.70;51.80
52189;DHT22;38162;45.926;13.608;2023-09-08T10:40:21;27.80;53.20
52189;DHT22;38162;45.926;13.608;2023-09-08T10:42:47;27.80;53.00
52189;DHT22;38162;45.926;13.608;2023-09-08T10:45:19;27.90;52.40
52189;DHT22;38162;45.926;13.608;2023-09-08T10:50:18;27.90;52.00
52189;DHT22;38162;45.926;13.608;2023-09-08T10:52:44;28.00;53.30
52189;DHT22;38162;45.926;13.608;2023-09-08T10:55:11;28.10;52.90
52189;DHT22;38162;45.926;13.608;2023-09-08T10:57:45;28.10;52.60
52189;DHT22;38162;45.926;13.608;2023-09-08T11:00:17;28.10;52.00
52189;DHT22;38162;45.926;13.608;2023-09-08T11:02:50;28.20;52.00
52189;DHT22;38162;45.926;13.608;2023-09-08T11:05:20;28.20;51.70
52189;DHT22;38162;45.926;13.608;2023-09-08T11:07:48;28.30;52.70
52189;DHT22;38162;45.926;13.608;2023-09-08T11:10:18;28.40;50.50
52189;DHT22;38162;45.926;13.608;2023-09-08T11:12:44;28.40;50.60
52189;DHT22;38162;45.926;13.608;2023-09-08T11:15:10;28.40;51.00
52189;DHT22;38162;45.926;13.608;2023-09-08T11:17:37;28.50;51.70
52189;DHT22;38162;45.926;13.608;2023-09-08T11:20:07;28.50;51.30
52189;DHT22;38162;45.926;13.608;2023-09-08T11:22:34;28.60;50.30
52189;DHT22;38162;45.926;13.608;2023-09-08T11:25:01;28.60;49.10
52189;DHT22;38162;45.926;13.608;2023-09-08T11:27:30;28.60;49.40
52189;DHT22;38162;45.926;13.608;2023-09-08T11:29:56;28.70;49.80
52189;DHT22;38162;45.926;13.608;2023-09-08T11:32:23;28.70;48.20
52189;DHT22;38162;45.926;13.608;2023-09-08T11:34:49;28.70;49.50
52189;DHT22;38162;45.926;13.608;2023-09-08T11:37:17;28.80;48.30
52189;DHT22;38162;45.926;13.608;2023-09-08T11:39:45;28.80;49.80
52189;DHT22;38162;45.926;13.608;2023-09-08T11:42:13;28.90;48.70
52189;DHT22;38162;45.926;13.608;2023-09-08T11:44:39;28.90;48.40
52189;DHT22;38162;45.926;13.608;2023-09-08T11:47:09;29.00;48.60
52189;DHT22;38162;45.926;13.608;2023-09-08T11:49:37;29.00;49.20
52189;DHT22;38162;45.926;13.608;2023-09-08T11:52:04;29.00;47.80
52189;DHT22;38162;45.926;13.608;2023-09-08T11:54:35;29.00;48.10
52189;DHT22;38162;45.926;13.608;2023-09-08T11:57:07;29.10;47.60
52189;DHT22;38162;45.926;13.608;2023-09-08T11:59:38;29.10;48.10
52189;DHT22;38162;45.926;13.608;2023-09-08T12:02:05;29.20;48.20
52189;DHT22;38162;45.926;13.608;2023-09-08T12:04:35;29.20;47.50
52189;DHT22;38162;45.926;13.608;2023-09-08T12:07:03;29.20;46.20
52189;DHT22;38162;45.926;13.608;2023-09-08T12:12:12;29.30;47.40
52189;DHT22;38162;45.926;13.608;2023-09-08T12:14:42;29.40;47.90
52189;DHT22;38162;45.926;13.608;2023-09-08T12:17:09;29.40;46.90
52189;DHT22;38162;45.926;13.608;2023-09-08T12:19:36;29.40;46.60
52189;DHT22;38162;45.926;13.608;2023-09-08T12:22:07;29.50;47.50
52189;DHT22;38162;45.926;13.608;2023-09-08T12:24:57;29.50;47.70
52189;DHT22;38162;45.926;13.608;2023-09-08T12:27:25;29.50;47.50
52189;DHT22;38162;45.926;13.608;2023-09-08T12:29:57;29.60;47.70
52189;DHT22;38162;45.926;13.608;2023-09-08T12:32:28;29.60;47.10
52189;DHT22;38162;45.926;13.608;2023-09-08T12:34:55;29.70;47.70
52189;DHT22;38162;45.926;13.608;2023-09-08T12:37:25;29.60;47.80
52189;DHT22;38162;45.926;13.608;2023-09-08T12:39:54;29.70;48.20
52189;DHT22;38162;45.926;13.608;2023-09-08T12:42:21;29.70;46.90
52189;DHT22;38162;45.926;13.608;2023-09-08T12:44:47;29.70;47.40
52189;DHT22;38162;45.926;13.608;2023-09-08T12:47:13;29.70;47.30
52189;DHT22;38162;45.926;13.608;2023-09-08T12:49:40;29.70;46.00
52189;DHT22;38162;45.926;13.608;2023-09-08T12:52:06;29.70;47.60
52189;DHT22;38162;45.926;13.608;2023-09-08T12:54:33;29.70;46.60
52189;DHT22;38162;45.926;13.608;2023-09-08T12:56:58;29.70;46.40
52189;DHT22;38162;45.926;13.608;2023-09-08T12:59:25;29.80;47.10
52189;DHT22;38162;45.926;13.608;2023-09-08T13:01:52;29.80;47.30
52189;DHT22;38162;45.926;13.608;2023-09-08T13:04:19;29.80;46.20
52189;DHT22;38162;45.926;13.608;2023-09-08T13:06:45;29.70;46.20
52189;DHT22;38162;45.926;13.608;2023-09-08T13:09:12;29.80;46.80
52189;DHT22;38162;45.926;13.608;2023-09-08T13:11:38;29.80;47.50
52189;DHT22;38162;45.926;13.608;2023-09-08T13:14:05;29.80;48.20
52189;DHT22;38162;45.926;13.608;2023-09-08T13:16:31;29.90;49.10
52189;DHT22;38162;45.926;13.608;2023-09-08T13:18:58;29.90;47.50
52189;DHT22;38162;45.926;13.608;2023-09-08T13:21:24;30.00;47.40
52189;DHT22;38162;45.926;13.608;2023-09-08T13:23:50;30.00;48.10
52189;DHT22;38162;45.926;13.608;2023-09-08T13:26:16;30.10;47.80
52189;DHT22;38162;45.926;13.608;2023-09-08T13:28:42;30.10;48.00
52189;DHT22;38162;45.926;13.608;2023-09-08T13:31:08;30.20;48.40
52189;DHT22;38162;45.926;13.608;2023-09-08T13:33:34;30.20;47.30
52189;DHT22;38162;45.926;13.608;2023-09-08T13:36:00;30.20;46.70
52189;DHT22;38162;45.926;13.608;2023-09-08T13:38:26;30.20;46.40
52189;DHT22;38162;45.926;13.608;2023-09-08T13:40:53;30.20;46.70
52189;DHT22;38162;45.926;13.608;2023-09-08T13:43:19;30.20;46.90
52189;DHT22;38162;45.926;13.608;2023-09-08T13:45:46;30.20;47.20
52189;DHT22;38162;45.926;13.608;2023-09-08T13:48:12;30.30;47.70
52189;DHT22;38162;45.926;13.608;2023-09-08T13:50:38;30.30;48.30
52189;DHT22;38162;45.926;13.608;2023-09-08T13:53:07;30.40;48.00
52189;DHT22;38162;45.926;13.608;2023-09-08T13:55:34;30.30;47.50
52189;DHT22;38162;45.926;13.608;2023-09-08T13:58:01;30.30;46.70
52189;DHT22;38162;45.926;13.608;2023-09-08T14:00:29;30.30;46.50
52189;DHT22;38162;45.926;13.608;2023-09-08T14:02:55;30.30;47.30
52189;DHT22;38162;45.926;13.608;2023-09-08T14:05:21;30.30;47.20
52189;DHT22;38162;45.926;13.608;2023-09-08T14:07:48;30.20;47.80
52189;DHT22;38162;45.926;13.608;2023-09-08T14:10:15;30.20;47.20
52189;DHT22;38162;45.926;13.608;2023-09-08T14:12:41;30.30;47.40
52189;DHT22;38162;45.926;13.608;2023-09-08T14:15:08;30.20;45.70
52189;DHT22;38162;45.926;13.608;2023-09-08T14:17:35;30.20;46.30
52189;DHT22;38162;45.926;13.608;2023-09-08T14:20:01;30.20;46.90
52189;DHT22;38162;45.926;13.608;2023-09-08T14:22:29;30.10;47.20
52189;DHT22;38162;45.926;13.608;2023-09-08T14:24:55;30.10;46.40
52189;DHT22;38162;45.926;13.608;2023-09-08T14:27:22;30.10;46.30
52189;DHT22;38162;45.926;13.608;2023-09-08T14:29:48;30.10;46.70
52189;DHT22;38162;45.926;13.608;2023-09-08T14:32:14;30.10;46.60
52189;DHT22;38162;45.926;13.608;2023-09-08T14:34:40;30.10;46.10
52189;DHT22;38162;45.926;13.608;2023-09-08T14:37:07;30.10;46.50
52189;DHT22;38162;45.926;13.608;2023-09-08T14:39:34;30.10;47.00
52189;DHT22;38162;45.926;13.608;2023-09-08T14:42:00;30.10;45.60
52189;DHT22;38162;45.926;13.608;2023-09-08T14:44:26;30.10;46.50
52189;DHT22;38162;45.926;13.608;2023-09-08T14:46:53;30.10;46.80
52189;DHT22;38162;45.926;13.608;2023-09-08T14:49:19;30.00;46.80
52189;DHT22;38162;45.926;13.608;2023-09-08T14:51:46;30.00;46.80
52189;DHT22;38162;45.926;13.608;2023-09-08T14:54:12;30.00;46.60
52189;DHT22;38162;45.926;13.608;2023-09-08T14:56:38;30.00;47.20
52189;DHT22;38162;45.926;13.608;2023-09-08T14:59:04;30.00;47.30
52189;DHT22;38162;45.926;13.608;2023-09-08T15:01:30;30.00;46.80
52189;DHT22;38162;45.926;13.608;2023-09-08T15:03:57;30.00;47.30
52189;DHT22;38162;45.926;13.608;2023-09-08T15:06:23;30.00;47.40
52189;DHT22;38162;45.926;13.608;2023-09-08T15:08:49;30.00;47.10
52189;DHT22;38162;45.926;13.608;2023-09-08T15:11:15;30.00;46.90
52189;DHT22;38162;45.926;13.608;2023-09-08T15:13:41;29.90;47.30
52189;DHT22;38162;45.926;13.608;2023-09-08T15:16:07;29.90;47.80
52189;DHT22;38162;45.926;13.608;2023-09-08T15:18:33;29.90;47.20
52189;DHT22;38162;45.926;13.608;2023-09-08T15:21:00;29.80;48.20
52189;DHT22;38162;45.926;13.608;2023-09-08T15:23:27;29.70;48.10